createdAt,value
2023-01-20T00:02:19.300Z,14.73
2023-01-20T00:04:48.367Z,13.40
2023-01-20T00:07:15.487Z,13.80
2023-01-20T00:09:42.617Z,13.47
2023-01-20T00:12:09.763Z,13.70
2023-01-20T00:14:36.933Z,14.57
2023-01-20T00:17:04.065Z,13.93
2023-01-20T00:19:31.171Z,15.07
2023-01-20T00:21:59.638Z,14.37
2023-01-20T00:24:26.964Z,13.67
2023-01-20T00:26:54.083Z,12.70
2023-01-20T00:29:21.250Z,13.50
2023-01-20T00:31:48.389Z,14.20
2023-01-20T00:34:15.538Z,13.63
2023-01-20T00:36:42.661Z,13.13
2023-01-20T00:39:11.155Z,12.53
2023-01-20T00:41:38.298Z,12.80
2023-01-20T00:44:05.685Z,12.70
2023-01-20T00:46:32.901Z,13.57
2023-01-20T00:49:00.059Z,12.20
2023-01-20T00:51:27.271Z,13.03
2023-01-20T00:53:54.394Z,14.23
2023-01-20T00:56:22.862Z,12.93
2023-01-20T00:58:49.958Z,13.87
2023-01-20T01:01:17.280Z,12.00
2023-01-20T01:03:44.767Z,12.63
2023-01-20T01:06:12.863Z,13.13
2023-01-20T01:08:40.006Z,12.23
2023-01-20T01:11:07.588Z,15.60
2023-01-20T01:13:36.087Z,12.63
2023-01-20T01:16:03.259Z,11.83
2023-01-20T01:18:30.437Z,14.37
2023-01-20T01:20:57.783Z,13.90
2023-01-20T01:23:25.031Z,14.77
2023-01-20T01:25:52.136Z,14.27
2023-01-20T01:28:19.254Z,13.17
2023-01-20T01:30:47.811Z,15.97
2023-01-20T01:33:14.957Z,14.33
2023-01-20T01:35:42.116Z,16.10
2023-01-20T01:38:09.236Z,16.80
2023-01-20T01:40:36.346Z,15.93
2023-01-20T01:43:03.472Z,15.50
2023-01-20T01:45:30.949Z,15.10
2023-01-20T01:48:08.148Z,16.30
2023-01-20T01:50:38.335Z,17.07
2023-01-20T01:53:06.368Z,17.00
2023-01-20T01:55:35.178Z,19.93
2023-01-20T01:58:03.533Z,17.70
2023-01-20T02:00:30.643Z,16.60
2023-01-20T02:02:58.224Z,17.70
2023-01-20T02:05:27.699Z,17.03
2023-01-20T02:07:55.021Z,16.30
2023-01-20T02:10:22.162Z,18.70
2023-01-20T02:12:50.107Z,18.30
2023-01-20T02:15:17.769Z,17.50
2023-01-20T02:17:49.799Z,18.93
2023-01-20T02:20:28.626Z,18.20
2023-01-20T02:22:59.555Z,16.60
2023-01-20T02:25:38.690Z,17.30
2023-01-20T02:28:20.850Z,18.77
2023-01-20T02:30:58.678Z,17.60
2023-01-20T02:33:29.830Z,16.47
2023-01-20T02:36:00.762Z,17.80
2023-01-20T02:38:32.231Z,17.23
2023-01-20T02:41:07.113Z,16.47
2023-01-20T02:43:36.493Z,16.67
2023-01-20T02:46:06.259Z,18.93
2023-01-20T02:48:37.443Z,19.47
2023-01-20T02:51:09.705Z,20.17
2023-01-20T02:53:38.840Z,21.43
2023-01-20T02:56:07.111Z,19.50
2023-01-20T02:58:35.698Z,19.87
2023-01-20T03:01:04.607Z,18.83
2023-01-20T03:03:34.256Z,17.90
2023-01-20T03:06:04.443Z,21.50
2023-01-20T03:08:32.524Z,17.80
2023-01-20T03:11:03.007Z,16.67
2023-01-20T03:13:32.388Z,18.70
2023-01-20T03:16:00.789Z,18.37
2023-01-20T03:18:29.496Z,19.13
2023-01-20T03:20:57.433Z,19.60
2023-01-20T03:23:26.236Z,18.83
2023-01-20T03:25:53.567Z,21.50
2023-01-20T03:28:20.721Z,21.20
2023-01-20T03:30:47.981Z,20.87
2023-01-20T03:33:15.594Z,20.17
2023-01-20T03:35:43.154Z,21.37
2023-01-20T03:38:10.698Z,18.30
2023-01-20T03:40:43.108Z,19.73
2023-01-20T03:43:14.968Z,17.87
2023-01-20T03:45:43.367Z,17.17
2023-01-20T03:48:14.232Z,17.90
2023-01-20T03:50:43.589Z,16.17
2023-01-20T03:53:15.565Z,16.50
2023-01-20T03:55:47.043Z,17.00
2023-01-20T03:58:16.725Z,17.90
2023-01-20T04:00:45.164Z,16.13
2023-01-20T04:03:15.640Z,16.93
2023-01-20T04:05:43.457Z,17.40
2023-01-20T04:08:11.766Z,15.77
2023-01-20T04:10:40.674Z,15.90
2023-01-20T04:13:09.214Z,15.90
2023-01-20T04:15:38.068Z,15.73
2023-01-20T04:18:11.187Z,17.40
2023-01-20T04:20:38.493Z,17.00
2023-01-20T04:23:06.577Z,16.50
2023-01-20T04:25:33.909Z,14.93
2023-01-20T04:28:01.060Z,15.20
2023-01-20T04:30:29.512Z,16.87
2023-01-20T04:32:56.694Z,16.73
2023-01-20T04:35:23.917Z,15.33
2023-01-20T04:37:51.040Z,15.77
2023-01-20T04:40:18.326Z,15.90
2023-01-20T04:42:45.464Z,16.30
2023-01-20T04:45:15.423Z,16.60
2023-01-20T04:47:44.195Z,15.33
2023-01-20T04:50:12.169Z,14.80
2023-01-20T04:52:39.287Z,14.80
2023-01-20T04:55:06.729Z,15.60
2023-01-20T04:57:33.844Z,15.53
2023-01-20T05:00:00.973Z,15.10
2023-01-20T05:02:28.125Z,16.27
2023-01-20T05:04:56.798Z,15.00
2023-01-20T05:07:24.014Z,16.20
2023-01-20T05:09:51.144Z,14.90
2023-01-20T05:12:18.290Z,15.73
2023-01-20T05:14:45.405Z,15.00
2023-01-20T05:17:12.535Z,15.93
2023-01-20T05:19:39.612Z,14.40
2023-01-20T05:22:08.104Z,15.77
2023-01-20T05:24:35.247Z,15.10
2023-01-20T05:27:02.371Z,14.33
2023-01-20T05:29:29.490Z,15.10
2023-01-20T05:31:56.621Z,16.47
2023-01-20T05:34:23.764Z,16.77
2023-01-20T05:36:51.898Z,15.00
2023-01-20T05:39:20.541Z,15.43
2023-01-20T05:41:47.800Z,13.63
2023-01-20T05:44:15.551Z,12.50
2023-01-20T05:46:42.701Z,13.57
2023-01-20T05:49:10.913Z,15.13
2023-01-20T05:51:38.035Z,14.33
2023-01-20T05:54:05.224Z,13.93
2023-01-20T05:56:33.724Z,13.80
2023-01-20T05:59:00.940Z,13.10
2023-01-20T06:01:28.422Z,14.20
2023-01-20T06:03:55.600Z,12.97
2023-01-20T06:06:22.771Z,12.97
2023-01-20T06:08:52.151Z,13.80
2023-01-20T06:11:19.313Z,13.13
2023-01-20T06:13:48.510Z,13.97
2023-01-20T06:16:16.800Z,12.77
2023-01-20T06:18:43.998Z,13.00
2023-01-20T06:21:11.190Z,13.40
2023-01-20T06:23:38.436Z,12.70
2023-01-20T06:26:06.428Z,14.53
2023-01-20T06:28:33.711Z,15.33
2023-01-20T06:31:03.523Z,14.77
2023-01-20T06:33:30.721Z,14.13
2023-01-20T06:35:58.322Z,13.63
2023-01-20T06:38:26.307Z,13.40
2023-01-20T06:40:56.841Z,13.83
2023-01-20T06:43:23.986Z,13.80
2023-01-20T06:45:51.164Z,15.60
2023-01-20T06:48:19.673Z,15.07
2023-01-20T06:50:46.823Z,13.07
2023-01-20T06:53:13.960Z,16.37
2023-01-20T06:55:41.070Z,13.77
2023-01-20T06:58:08.200Z,13.33
2023-01-20T07:00:35.328Z,14.77
2023-01-20T07:03:02.513Z,15.70
2023-01-20T07:05:31.096Z,15.73
2023-01-20T07:07:58.224Z,15.00
2023-01-20T07:10:25.323Z,14.50
2023-01-20T07:12:52.471Z,14.37
2023-01-20T07:15:19.577Z,14.70
2023-01-20T07:17:46.679Z,15.23
2023-01-20T07:20:13.989Z,16.73
2023-01-20T07:22:42.453Z,17.00
2023-01-20T07:25:10.086Z,15.10
2023-01-20T07:27:37.255Z,15.00
2023-01-20T07:30:04.683Z,15.33
2023-01-20T07:32:31.820Z,15.03
2023-01-20T07:34:58.964Z,14.77
2023-01-20T07:37:26.111Z,15.80
2023-01-20T07:39:54.534Z,15.47
2023-01-20T07:42:21.645Z,17.90
2023-01-20T07:44:48.724Z,17.37
2023-01-20T07:47:15.881Z,13.63
2023-01-20T07:49:43.022Z,15.90
2023-01-20T07:52:10.341Z,16.60
2023-01-20T07:54:37.450Z,14.83
2023-01-20T07:57:05.942Z,16.57
2023-01-20T07:59:33.072Z,16.10
2023-01-20T08:02:00.261Z,16.90
2023-01-20T08:04:27.471Z,15.17
2023-01-20T08:06:54.675Z,13.90
2023-01-20T08:09:21.795Z,15.20
2023-01-20T08:11:48.903Z,15.80
2023-01-20T08:14:17.462Z,13.67
2023-01-20T08:16:45.749Z,14.53
2023-01-20T08:19:12.907Z,15.53
2023-01-20T08:21:40.010Z,14.80
2023-01-20T08:24:07.285Z,14.17
2023-01-20T08:26:34.469Z,15.40
2023-01-20T08:29:02.691Z,15.53
2023-01-20T08:31:31.496Z,15.53
2023-01-20T08:33:59.285Z,15.50
2023-01-20T08:36:27.629Z,16.70
2023-01-20T08:38:55.460Z,15.40
2023-01-20T08:41:23.925Z,15.77
2023-01-20T08:43:51.412Z,14.63
2023-01-20T08:46:19.522Z,15.37
2023-01-20T08:48:48.793Z,14.93
2023-01-20T08:51:16.921Z,14.70
2023-01-20T08:53:44.160Z,14.67
2023-01-20T08:56:11.593Z,15.80
2023-01-20T08:58:38.825Z,13.33
2023-01-20T09:01:08.839Z,14.17
2023-01-20T09:03:36.057Z,11.90
2023-01-20T09:06:04.933Z,14.60
2023-01-20T09:08:32.060Z,14.67
2023-01-20T09:11:02.532Z,15.30
2023-01-20T09:13:29.654Z,16.23
2023-01-20T09:15:56.879Z,15.50
2023-01-20T09:18:24.304Z,17.13
2023-01-20T09:20:51.498Z,16.17
2023-01-20T09:23:20.098Z,15.40
2023-01-20T09:25:47.288Z,16.07
2023-01-20T09:28:14.512Z,14.43
2023-01-20T09:30:41.866Z,13.77
2023-01-20T09:33:10.275Z,15.03
2023-01-20T09:35:37.393Z,14.80
2023-01-20T09:38:04.552Z,14.00
2023-01-20T09:40:41.662Z,14.67
2023-01-20T09:43:15.551Z,14.63
2023-01-20T09:45:45.917Z,14.87
2023-01-20T09:48:13.860Z,15.53
2023-01-20T09:50:44.410Z,15.77
2023-01-20T09:53:14.656Z,13.57
2023-01-20T09:55:45.970Z,11.87
2023-01-20T09:58:20.000Z,11.93
2023-01-20T10:00:48.644Z,10.80
2023-01-20T10:03:17.884Z,10.43
2023-01-20T10:05:45.348Z,10.50
2023-01-20T10:08:16.688Z,10.87
2023-01-20T10:10:46.541Z,12.20
2023-01-20T10:13:18.337Z,11.33
2023-01-20T10:15:47.532Z,9.80
2023-01-20T10:18:16.191Z,9.80
2023-01-20T10:20:47.178Z,10.20
2023-01-20T10:23:18.560Z,10.33
2023-01-20T10:25:49.555Z,11.00
2023-01-20T10:28:21.401Z,8.90
2023-01-20T10:30:48.842Z,9.40
2023-01-20T10:33:18.635Z,7.83
2023-01-20T10:35:48.007Z,9.00
2023-01-20T10:38:20.182Z,8.90
2023-01-20T10:40:52.218Z,8.67
2023-01-20T10:43:19.675Z,9.53
2023-01-20T10:45:56.698Z,9.43
2023-01-20T10:48:32.741Z,9.60
2023-01-20T10:51:02.691Z,8.73
2023-01-20T10:53:35.972Z,8.77
2023-01-20T10:56:11.196Z,9.13
2023-01-20T10:58:39.850Z,9.00
2023-01-20T11:01:08.001Z,9.10
2023-01-20T11:03:36.500Z,16.10
2023-01-20T11:06:03.961Z,10.80
2023-01-20T11:08:31.187Z,9.03
2023-01-20T11:10:59.551Z,8.77
2023-01-20T11:13:28.128Z,7.70
2023-01-20T11:15:56.602Z,8.93
2023-01-20T11:18:25.641Z,7.77
2023-01-20T11:20:53.637Z,7.80
2023-01-20T11:23:22.771Z,8.27
2023-01-20T11:25:57.041Z,7.60
2023-01-20T11:28:24.796Z,7.80
2023-01-20T11:30:54.891Z,8.23
2023-01-20T11:33:23.044Z,8.30
2023-01-20T11:36:00.588Z,7.87
2023-01-20T11:38:28.735Z,8.50
2023-01-20T11:40:56.758Z,7.30
2023-01-20T11:43:30.711Z,10.93
2023-01-20T11:46:12.512Z,9.23
2023-01-20T11:48:39.939Z,8.60
2023-01-20T11:51:17.515Z,7.53
2023-01-20T11:53:44.678Z,7.90
2023-01-20T11:56:16.087Z,7.20
2023-01-20T11:58:49.705Z,7.10
2023-01-20T12:01:22.200Z,7.30
2023-01-20T12:04:00.911Z,8.27
2023-01-20T12:06:28.588Z,7.20
2023-01-20T12:08:59.059Z,6.60
2023-01-20T12:11:29.031Z,6.60
2023-01-20T12:14:06.250Z,7.90
2023-01-20T12:16:35.177Z,8.60
2023-01-20T12:19:05.215Z,7.00
2023-01-20T12:21:35.168Z,7.57
2023-01-20T12:24:04.501Z,6.17
2023-01-20T12:26:34.894Z,6.57
2023-01-20T12:29:05.580Z,7.40
2023-01-20T12:31:33.314Z,8.13
2023-01-20T12:34:03.959Z,7.37
2023-01-20T12:36:51.844Z,8.47
2023-01-20T12:39:29.821Z,7.83
2023-01-20T12:42:16.018Z,8.03
2023-01-20T12:44:46.740Z,7.27
2023-01-20T12:47:20.364Z,6.10
2023-01-20T12:50:05.143Z,6.97
2023-01-20T12:52:39.294Z,7.07
2023-01-20T12:55:14.485Z,7.37
2023-01-20T12:57:45.964Z,8.17
2023-01-20T13:00:22.907Z,7.53
2023-01-20T13:02:59.082Z,7.10
2023-01-20T13:05:47.901Z,8.60
2023-01-20T13:08:18.943Z,9.10
2023-01-20T13:10:51.556Z,9.87
2023-01-20T13:13:27.741Z,10.30
2023-01-20T13:15:58.448Z,8.03
2023-01-20T13:18:28.781Z,9.20
2023-01-20T13:20:57.277Z,10.60
2023-01-20T13:23:25.936Z,10.47
2023-01-20T13:25:53.402Z,11.77
2023-01-20T13:28:21.814Z,10.67
2023-01-20T13:30:50.141Z,10.37
2023-01-20T13:33:27.187Z,10.83
2023-01-20T13:35:55.118Z,10.97
2023-01-20T13:38:24.852Z,9.87
2023-01-20T13:40:53.557Z,10.77
2023-01-20T13:43:37.349Z,10.30
2023-01-20T13:46:23.495Z,9.20
2023-01-20T13:49:05.579Z,8.40
2023-01-20T13:51:46.138Z,8.70
2023-01-20T13:54:32.020Z,8.93
2023-01-20T13:57:14.020Z,9.17
2023-01-20T13:59:42.515Z,9.90
2023-01-20T14:02:16.544Z,10.27
2023-01-20T14:04:44.984Z,10.27
2023-01-20T14:07:22.245Z,10.40
2023-01-20T14:09:51.930Z,10.20
2023-01-20T14:12:19.200Z,8.27
2023-01-20T14:14:47.689Z,9.20
2023-01-20T14:17:17.457Z,11.50
2023-01-20T14:19:47.267Z,8.33
2023-01-20T14:22:18.878Z,9.73
2023-01-20T14:24:46.692Z,10.93
2023-01-20T14:27:17.771Z,10.60
2023-01-20T14:29:45.157Z,9.20
2023-01-20T14:32:20.038Z,9.60
2023-01-20T14:34:49.307Z,10.97
2023-01-20T14:37:20.883Z,9.47
2023-01-20T14:39:48.758Z,9.57
2023-01-20T14:42:18.214Z,9.37
2023-01-20T14:44:47.401Z,10.47
2023-01-20T14:47:14.746Z,11.60
2023-01-20T14:49:43.636Z,9.50
2023-01-20T14:52:13.807Z,10.07
2023-01-20T14:54:43.559Z,10.80
2023-01-20T14:57:19.330Z,8.57
2023-01-20T14:59:46.484Z,10.23
2023-01-20T15:02:17.804Z,11.87
2023-01-20T15:04:46.366Z,7.93
2023-01-20T15:07:18.237Z,10.00
2023-01-20T15:09:50.812Z,7.90
2023-01-20T15:12:31.169Z,9.67
2023-01-20T15:15:10.188Z,6.83
2023-01-20T15:17:37.294Z,7.70
2023-01-20T15:20:19.400Z,7.83
2023-01-20T15:22:48.282Z,7.33
2023-01-20T15:25:15.578Z,6.70
2023-01-20T15:27:42.677Z,8.57
2023-01-20T15:30:14.470Z,7.10
2023-01-20T15:32:41.663Z,8.20
2023-01-20T15:35:12.238Z,7.13
2023-01-20T15:37:39.428Z,7.67
2023-01-20T15:40:13.812Z,7.60
2023-01-20T15:42:41.170Z,6.83
2023-01-20T15:45:08.929Z,6.83
2023-01-20T15:47:36.027Z,5.83
2023-01-20T15:50:03.209Z,7.67
2023-01-20T15:52:30.480Z,7.80
2023-01-20T15:54:57.875Z,7.30
2023-01-20T15:57:26.492Z,8.83
2023-01-20T15:59:53.603Z,10.20
2023-01-20T16:02:21.328Z,10.33
2023-01-20T16:04:48.500Z,10.10
2023-01-20T16:07:16.576Z,10.00
2023-01-20T16:09:44.028Z,9.40
2023-01-20T16:12:12.460Z,11.43
2023-01-20T16:14:41.201Z,9.47
2023-01-20T16:17:13.493Z,10.10
2023-01-20T16:19:40.825Z,10.50
2023-01-20T16:22:08.326Z,10.27
2023-01-20T16:24:35.437Z,10.13
2023-01-20T16:27:03.779Z,10.70
2023-01-20T16:29:30.940Z,8.60
2023-01-20T16:31:59.431Z,9.83
2023-01-20T16:34:26.812Z,10.10
2023-01-20T16:36:53.914Z,9.87
2023-01-20T16:39:21.044Z,10.00
2023-01-20T16:41:48.631Z,10.23
2023-01-20T16:44:15.758Z,11.40
2023-01-20T16:46:42.900Z,10.50
2023-01-20T16:49:11.351Z,10.77
2023-01-20T16:51:38.474Z,10.40
2023-01-20T16:54:05.701Z,10.57
2023-01-20T16:56:33.334Z,11.30
2023-01-20T16:59:01.843Z,9.87
2023-01-20T17:01:30.139Z,9.70
2023-01-20T17:03:57.959Z,11.77
2023-01-20T17:06:27.237Z,10.57
2023-01-20T17:08:55.061Z,11.03
2023-01-20T17:11:23.473Z,10.83
2023-01-20T17:13:50.728Z,10.20
2023-01-20T17:16:18.090Z,11.17
2023-01-20T17:18:48.597Z,10.07
2023-01-20T17:21:15.753Z,17.87
2023-01-20T17:23:44.204Z,12.37
2023-01-20T17:26:11.296Z,10.50
2023-01-20T17:28:38.427Z,12.20
2023-01-20T17:31:06.384Z,11.37
2023-01-20T17:33:33.708Z,11.47
2023-01-20T17:36:01.703Z,10.93
2023-01-20T17:38:29.053Z,12.43
2023-01-20T17:41:01.644Z,11.37
2023-01-20T17:43:31.921Z,11.90
2023-01-20T17:45:59.126Z,10.60
2023-01-20T17:48:26.344Z,11.77
2023-01-20T17:50:53.512Z,12.53
2023-01-20T17:53:20.642Z,12.57
2023-01-20T17:55:47.790Z,11.63
2023-01-20T17:58:16.312Z,12.13
2023-01-20T18:00:43.455Z,10.97
2023-01-20T18:03:10.568Z,11.93
2023-01-20T18:05:37.712Z,12.30
2023-01-20T18:08:04.979Z,11.70
2023-01-20T18:10:32.134Z,13.50
2023-01-20T18:12:59.265Z,11.43
2023-01-20T18:15:28.127Z,12.37
2023-01-20T18:17:55.327Z,12.20
2023-01-20T18:20:22.505Z,12.60
2023-01-20T18:22:50.006Z,10.90
2023-01-20T18:25:17.231Z,12.47
2023-01-20T18:27:44.774Z,13.33
2023-01-20T18:30:12.381Z,12.60
2023-01-20T18:32:40.840Z,13.17
2023-01-20T18:35:08.186Z,12.60
2023-01-20T18:37:35.286Z,13.00
2023-01-20T18:40:02.424Z,13.53
2023-01-20T18:42:29.549Z,13.33
2023-01-20T18:44:56.652Z,13.37
2023-01-20T18:47:23.770Z,11.70
2023-01-20T18:49:52.232Z,13.93
2023-01-20T18:52:19.340Z,13.00
2023-01-20T18:54:46.896Z,14.07
2023-01-20T18:57:14.055Z,11.97
2023-01-20T18:59:41.147Z,14.40
2023-01-20T19:02:09.422Z,13.40
2023-01-20T19:04:36.537Z,14.40
2023-01-20T19:07:04.991Z,13.67
2023-01-20T19:09:32.089Z,13.80
2023-01-20T19:11:59.299Z,13.17
2023-01-20T19:14:26.430Z,14.17
2023-01-20T19:16:53.536Z,14.17
2023-01-20T19:19:20.704Z,14.63
2023-01-20T19:21:50.314Z,13.97
2023-01-20T19:24:19.337Z,14.97
2023-01-20T19:26:46.451Z,14.03
2023-01-20T19:29:14.957Z,13.77
2023-01-20T19:31:42.216Z,11.87
2023-01-20T19:34:10.091Z,13.40
2023-01-20T19:36:37.411Z,16.03
2023-01-20T19:39:04.715Z,14.30
2023-01-20T19:41:33.548Z,12.73
2023-01-20T19:44:01.518Z,13.30
2023-01-20T19:46:30.068Z,15.07
2023-01-20T19:48:57.846Z,13.67
2023-01-20T19:51:25.413Z,14.00
2023-01-20T19:53:54.092Z,15.03
2023-01-20T19:56:21.191Z,12.90
2023-01-20T19:58:51.790Z,14.20
2023-01-20T20:01:19.646Z,12.37
2023-01-20T20:03:47.215Z,14.43
2023-01-20T20:06:24.640Z,13.83
2023-01-20T20:08:52.178Z,13.17
2023-01-20T20:11:19.296Z,12.37
2023-01-20T20:13:46.425Z,15.50
2023-01-20T20:16:14.962Z,14.20
2023-01-20T20:18:42.062Z,13.17
2023-01-20T20:21:09.216Z,13.63
2023-01-20T20:23:36.316Z,14.70
2023-01-20T20:26:03.478Z,13.93
2023-01-20T20:28:30.583Z,13.30
2023-01-20T20:31:04.572Z,14.60
2023-01-20T20:33:33.185Z,14.47
2023-01-20T20:36:00.327Z,14.53
2023-01-20T20:38:27.407Z,14.80
2023-01-20T20:40:56.952Z,12.63
2023-01-20T20:43:24.081Z,13.40
2023-01-20T20:45:51.240Z,14.53
2023-01-20T20:48:18.576Z,13.63
2023-01-20T20:50:47.125Z,14.07
2023-01-20T20:53:14.300Z,13.13
2023-01-20T20:55:41.723Z,14.43
2023-01-20T20:58:08.943Z,12.20
2023-01-20T21:00:36.145Z,14.63
2023-01-20T21:03:03.421Z,12.87
2023-01-20T21:05:30.610Z,13.50
2023-01-20T21:07:59.081Z,14.60
2023-01-20T21:10:26.529Z,13.20
2023-01-20T21:12:53.625Z,12.80
2023-01-20T21:15:20.765Z,13.60
2023-01-20T21:17:47.862Z,14.53
2023-01-20T21:20:15.226Z,13.03
2023-01-20T21:22:42.495Z,12.17
2023-01-20T21:25:11.030Z,14.70
2023-01-20T21:27:38.122Z,15.70
2023-01-20T21:30:05.766Z,13.20
2023-01-20T21:32:33.419Z,13.23
2023-01-20T21:35:00.516Z,14.90
2023-01-20T21:37:27.614Z,13.80
2023-01-20T21:39:54.732Z,14.70
2023-01-20T21:42:23.198Z,15.47
2023-01-20T21:44:50.325Z,15.00
2023-01-20T21:47:17.443Z,14.10
2023-01-20T21:49:44.618Z,13.53
2023-01-20T21:52:12.110Z,12.17
2023-01-20T21:54:39.208Z,13.00
2023-01-20T21:57:06.336Z,14.40
2023-01-20T21:59:34.826Z,12.77
2023-01-20T22:02:02.022Z,14.60
2023-01-20T22:04:29.168Z,13.30
2023-01-20T22:06:56.302Z,13.93
2023-01-20T22:09:23.394Z,13.50
2023-01-20T22:11:50.599Z,13.80
2023-01-20T22:14:17.766Z,13.10
2023-01-20T22:16:46.248Z,14.23
2023-01-20T22:19:13.550Z,14.80
2023-01-20T22:21:40.683Z,13.07
2023-01-20T22:24:08.122Z,14.40
2023-01-20T22:26:35.420Z,14.30
2023-01-20T22:29:02.531Z,13.57
2023-01-20T22:31:29.682Z,14.37
2023-01-20T22:33:58.854Z,13.97
2023-01-20T22:36:26.331Z,15.30
2023-01-20T22:38:53.908Z,13.40
2023-01-20T22:41:21.111Z,14.70
2023-01-20T22:43:48.395Z,14.40
2023-01-20T22:46:16.559Z,13.43
2023-01-20T22:48:44.009Z,14.13
2023-01-20T22:51:13.417Z,13.60
2023-01-20T22:53:40.754Z,12.07
2023-01-20T22:56:10.119Z,14.90
2023-01-20T22:58:37.262Z,13.70
2023-01-20T23:01:05.506Z,14.30
2023-01-20T23:03:32.682Z,12.27
2023-01-20T23:06:00.372Z,13.20
2023-01-20T23:08:29.629Z,12.43
2023-01-20T23:10:57.940Z,14.40
2023-01-20T23:13:25.111Z,13.73
2023-01-20T23:15:52.407Z,14.17
2023-01-20T23:18:19.865Z,13.93
2023-01-20T23:20:48.180Z,14.70
2023-01-20T23:23:15.408Z,14.13
2023-01-20T23:25:43.991Z,14.50
2023-01-20T23:28:11.141Z,13.07
2023-01-20T23:30:38.604Z,14.23
2023-01-20T23:33:05.759Z,13.70
2023-01-20T23:35:34.238Z,14.83
2023-01-20T23:38:01.385Z,14.17
2023-01-20T23:40:28.527Z,14.07
2023-01-20T23:42:57.004Z,14.03
2023-01-20T23:45:24.097Z,13.03
2023-01-20T23:47:52.130Z,15.03
2023-01-20T23:50:19.370Z,14.50
2023-01-20T23:52:46.520Z,14.47
2023-01-20T23:55:13.604Z,13.40
2023-01-20T23:57:40.735Z,14.17
